Terminal Aerodrome Forecast
Issued by NWS Bismarck, ND

Home | Current Version | Previous Version | Text Only | Print | Product List | Glossary On
Versions: 1 2 3 4 5 6 7 8 9 10 11 12 13 14 15 16 17 18 19 20 21 22 23 24
000
FTUS43 KBIS 241317 AAE
TAFBIS
TAF AMD
KBIS 241317Z 2413/2512 27010KT P6SM VCSH SCT060 BKN070
     FM241400 30020G30KT P6SM -SHRA SCT030 OVC045
     FM241530 30018G28KT P6SM SCT060 BKN090
     FM241700 30016G24KT P6SM FEW250
     FM250000 29007KT P6SM FEW250=

USA.gov is the U.S. government's official web portal to all federal, state and local government web resources and services.